sensor_id;sensor_type;location;lat;lon;timestamp;pressure;altitude;pressure_sealevel;temperature
64296;BMP280;51082;38.236;15.432;2023-07-09T00:00:50;101574.84;;;27.91
64296;BMP280;51082;38.236;15.432;2023-07-09T00:01:53;101571.91;;;27.93
64296;BMP280;51082;38.236;15.432;2023-07-09T00:02:56;101572.94;;;27.97
64296;BMP280;51082;38.236;15.432;2023-07-09T00:04:01;101583.09;;;27.95
64296;BMP280;51082;38.236;15.432;2023-07-09T00:05:10;101578.84;;;27.94
64296;BMP280;51082;38.236;15.432;2023-07-09T00:06:17;101581.53;;;27.94
64296;BMP280;51082;38.236;15.432;2023-07-09T00:07:24;101573.97;;;27.96
64296;BMP280;51082;38.236;15.432;2023-07-09T00:08:31;101577.97;;;27.98
64296;BMP280;51082;38.236;15.432;2023-07-09T00:09:34;101575.00;;;28.00
64296;BMP280;51082;38.236;15.432;2023-07-09T00:10:37;101576.09;;;27.99
64296;BMP280;51082;38.236;15.432;2023-07-09T00:11:40;101579.56;;;27.99
64296;BMP280;51082;38.236;15.432;2023-07-09T00:12:42;101578.28;;;27.97
64296;BMP280;51082;38.236;15.432;2023-07-09T00:13:44;101573.50;;;27.94
64296;BMP280;51082;38.236;15.432;2023-07-09T00:14:49;101575.97;;;27.90
64296;BMP280;51082;38.236;15.432;2023-07-09T00:15:52;101572.00;;;27.88
64296;BMP280;51082;38.236;15.432;2023-07-09T00:16:54;101566.66;;;27.88
64296;BMP280;51082;38.236;15.432;2023-07-09T00:17:56;101567.78;;;27.82
64296;BMP280;51082;38.236;15.432;2023-07-09T00:19:04;101569.16;;;27.79
64296;BMP280;51082;38.236;15.432;2023-07-09T00:20:10;101576.91;;;27.81
64296;BMP280;51082;38.236;15.432;2023-07-09T00:21:19;101575.09;;;27.76
64296;BMP280;51082;38.236;15.432;2023-07-09T00:22:26;101571.63;;;27.76
64296;BMP280;51082;38.236;15.432;2023-07-09T00:23:29;101569.97;;;27.80
64296;BMP280;51082;38.236;15.432;2023-07-09T00:24:31;101569.97;;;27.80
64296;BMP280;51082;38.236;15.432;2023-07-09T00:25:34;101570.53;;;27.77
64296;BMP280;51082;38.236;15.432;2023-07-09T00:26:37;101569.31;;;27.69
64296;BMP280;51082;38.236;15.432;2023-07-09T00:27:44;101568.00;;;27.66
64296;BMP280;51082;38.236;15.432;2023-07-09T00:28:49;101573.06;;;27.68
64296;BMP280;51082;38.236;15.432;2023-07-09T00:29:51;101572.84;;;27.64
64296;BMP280;51082;38.236;15.432;2023-07-09T00:30:54;101572.94;;;27.59
64296;BMP280;51082;38.236;15.432;2023-07-09T00:31:58;101575.59;;;27.59
64296;BMP280;51082;38.236;15.432;2023-07-09T00:33:01;101576.69;;;27.58
64296;BMP280;51082;38.236;15.432;2023-07-09T00:34:02;101576.97;;;27.57
64296;BMP280;51082;38.236;15.432;2023-07-09T00:35:07;101574.59;;;27.55
64296;BMP280;51082;38.236;15.432;2023-07-09T00:36:14;101565.50;;;27.56
64296;BMP280;51082;38.236;15.432;2023-07-09T00:37:24;101568.19;;;27.56
64296;BMP280;51082;38.236;15.432;2023-07-09T00:38:29;101573.00;;;27.54
64296;BMP280;51082;38.236;15.432;2023-07-09T00:39:39;101574.59;;;27.55
64296;BMP280;51082;38.236;15.432;2023-07-09T00:40:47;101574.03;;;27.58
64296;BMP280;51082;38.236;15.432;2023-07-09T00:41:50;101576.69;;;27.58
64296;BMP280;51082;38.236;15.432;2023-07-09T00:42:53;101569.47;;;27.59
64296;BMP280;51082;38.236;15.432;2023-07-09T00:44:18;101576.78;;;27.53
64296;BMP280;51082;38.236;15.432;2023-07-09T00:45:29;101578.66;;;27.53
64296;BMP280;51082;38.236;15.432;2023-07-09T00:48:17;101579.47;;;27.53
64296;BMP280;51082;38.236;15.432;2023-07-09T00:49:26;101576.78;;;27.53
64296;BMP280;51082;38.236;15.432;2023-07-09T00:50:35;101580.53;;;27.52
64296;BMP280;51082;38.236;15.432;2023-07-09T00:51:47;101575.19;;;27.52
64296;BMP280;51082;38.236;15.432;2023-07-09T00:52:55;101573.31;;;27.53
64296;BMP280;51082;38.236;15.432;2023-07-09T00:54:03;101571.19;;;27.50
64296;BMP280;51082;38.236;15.432;2023-07-09T00:55:16;101573.06;;;27.49
64296;BMP280;51082;38.236;15.432;2023-07-09T00:56:26;101574.59;;;27.55
64296;BMP280;51082;38.236;15.432;2023-07-09T00:57:33;101573.56;;;27.51
64296;BMP280;51082;38.236;15.432;2023-07-09T00:58:39;101572.19;;;27.54
64296;BMP280;51082;38.236;15.432;2023-07-09T00:59:42;101566.41;;;27.47
64296;BMP280;51082;38.236;15.432;2023-07-09T01:00:50;101569.53;;;27.54
64296;BMP280;51082;38.236;15.432;2023-07-09T01:01:57;101573.06;;;27.49
64296;BMP280;51082;38.236;15.432;2023-07-09T01:03:04;101573.13;;;27.44
64296;BMP280;51082;38.236;15.432;2023-07-09T01:04:08;101576.03;;;27.48
64296;BMP280;51082;38.236;15.432;2023-07-09T01:05:12;101572.59;;;27.47
64296;BMP280;51082;38.236;15.432;2023-07-09T01:06:17;101570.47;;;27.44
64296;BMP280;51082;38.236;15.432;2023-07-09T01:07:21;101567.00;;;27.44
64296;BMP280;51082;38.236;15.432;2023-07-09T01:08:28;101568.91;;;27.43
64296;BMP280;51082;38.236;15.432;2023-07-09T01:09:31;101570.47;;;27.44
64296;BMP280;51082;38.236;15.432;2023-07-09T01:10:36;101577.47;;;27.40
64296;BMP280;51082;38.236;15.432;2023-07-09T01:11:44;101569.22;;;27.37
64296;BMP280;51082;38.236;15.432;2023-07-09T01:12:48;101570.31;;;27.35
64296;BMP280;51082;38.236;15.432;2023-07-09T01:13:57;101567.59;;;27.41
64296;BMP280;51082;38.236;15.432;2023-07-09T01:15:04;101569.59;;;27.49
64296;BMP280;51082;38.236;15.432;2023-07-09T01:16:11;101568.91;;;27.43
64296;BMP280;51082;38.236;15.432;2023-07-09T01:17:13;101572.59;;;27.47
64296;BMP280;51082;38.236;15.432;2023-07-09T01:18:32;101570.69;;;27.48
64296;BMP280;51082;38.236;15.432;2023-07-09T01:19:39;101572.00;;;27.50
64296;BMP280;51082;38.236;15.432;2023-07-09T01:20:44;101570.41;;;27.49
64296;BMP280;51082;38.236;15.432;2023-07-09T01:21:55;101576.78;;;27.53
64296;BMP280;51082;38.236;15.432;2023-07-09T01:23:00;101570.03;;;27.56
64296;BMP280;51082;38.236;15.432;2023-07-09T01:24:11;101571.13;;;27.55
64296;BMP280;51082;38.236;15.432;2023-07-09T01:25:15;101575.66;;;27.54
64296;BMP280;51082;38.236;15.432;2023-07-09T01:26:18;101576.78;;;27.53
64296;BMP280;51082;38.236;15.432;2023-07-09T01:27:24;101577.84;;;27.52
64296;BMP280;51082;38.236;15.432;2023-07-09T01:28:27;101574.16;;;27.48
64296;BMP280;51082;38.236;15.432;2023-07-09T01:29:31;101578.13;;;27.51
64296;BMP280;51082;38.236;15.432;2023-07-09T01:30:36;101568.75;;;27.53
64296;BMP280;51082;38.236;15.432;2023-07-09T01:31:39;101574.97;;;27.49
64296;BMP280;51082;38.236;15.432;2023-07-09T01:32:44;101577.13;;;27.47
64296;BMP280;51082;38.236;15.432;2023-07-09T01:33:49;101576.91;;;27.43
64296;BMP280;51082;38.236;15.432;2023-07-09T01:34:54;101585.19;;;27.42
64296;BMP280;51082;38.236;15.432;2023-07-09T01:35:59;101575.53;;;27.46
64296;BMP280;51082;38.236;15.432;2023-07-09T01:37:03;101581.09;;;27.49
64296;BMP280;51082;38.236;15.432;2023-07-09T01:38:05;101585.09;;;27.52
64296;BMP280;51082;38.236;15.432;2023-07-09T01:39:08;101590.94;;;27.54
64296;BMP280;51082;38.236;15.432;2023-07-09T01:40:14;101589.03;;;27.54
64296;BMP280;51082;38.236;15.432;2023-07-09T01:41:20;101594.16;;;27.51
64296;BMP280;51082;38.236;15.432;2023-07-09T01:42:36;101594.00;;;27.47
64296;BMP280;51082;38.236;15.432;2023-07-09T01:43:47;101588.66;;;27.47
64296;BMP280;51082;38.236;15.432;2023-07-09T01:44:49;101592.09;;;27.48
64296;BMP280;51082;38.236;15.432;2023-07-09T01:45:54;101591.56;;;27.46
64296;BMP280;51082;38.236;15.432;2023-07-09T01:46:58;101593.16;;;27.47
64296;BMP280;51082;38.236;15.432;2023-07-09T01:48:10;101584.06;;;27.48
64296;BMP280;51082;38.236;15.432;2023-07-09T01:49:17;101588.66;;;27.47
64296;BMP280;51082;38.236;15.432;2023-07-09T01:50:19;101586.75;;;27.48
64296;BMP280;51082;38.236;15.432;2023-07-09T01:51:20;101583.06;;;27.44
64296;BMP280;51082;38.236;15.432;2023-07-09T01:52:31;101588.97;;;27.41
64296;BMP280;51082;38.236;15.432;2023-07-09T01:53:34;101582.59;;;27.37
64296;BMP280;51082;38.236;15.432;2023-07-09T01:54:41;101583.69;;;27.35
64296;BMP280;51082;38.236;15.432;2023-07-09T01:55:50;101577.03;;;27.33
64296;BMP280;51082;38.236;15.432;2023-07-09T01:57:13;101582.97;;;27.30
64296;BMP280;51082;38.236;15.432;2023-07-09T01:58:18;101580.28;;;27.30
64296;BMP280;51082;38.236;15.432;2023-07-09T01:59:21;101578.19;;;27.27
64296;BMP280;51082;38.236;15.432;2023-07-09T02:00:23;101578.19;;;27.27
64296;BMP280;51082;38.236;15.432;2023-07-09T02:01:29;101576.59;;;27.26
64296;BMP280;51082;38.236;15.432;2023-07-09T02:02:36;101574.72;;;27.26
64296;BMP280;51082;38.236;15.432;2023-07-09T02:03:39;101576.59;;;27.26
64296;BMP280;51082;38.236;15.432;2023-07-09T02:04:42;101572.28;;;27.30
64296;BMP280;51082;38.236;15.432;2023-07-09T02:05:45;101571.47;;;27.29
64296;BMP280;51082;38.236;15.432;2023-07-09T02:06:48;101578.66;;;27.29
64296;BMP280;51082;38.236;15.432;2023-07-09T02:07:51;101580.06;;;27.26
64296;BMP280;51082;38.236;15.432;2023-07-09T02:08:54;101578.75;;;27.24
64296;BMP280;51082;38.236;15.432;2023-07-09T02:09:55;101577.16;;;27.23
64296;BMP280;51082;38.236;15.432;2023-07-09T02:10:57;101579.34;;;27.21
64296;BMP280;51082;38.236;15.432;2023-07-09T02:12:00;101587.63;;;27.19
64296;BMP280;51082;38.236;15.432;2023-07-09T02:13:03;101583.38;;;27.18
64296;BMP280;51082;38.236;15.432;2023-07-09T02:14:06;101585.53;;;27.16
64296;BMP280;51082;38.236;15.432;2023-07-09T02:15:12;101585.00;;;27.14
64296;BMP280;51082;38.236;15.432;2023-07-09T02:16:17;101579.94;;;27.13
64296;BMP280;51082;38.236;15.432;2023-07-09T02:17:19;101587.69;;;27.14
64296;BMP280;51082;38.236;15.432;2023-07-09T02:18:24;101579.66;;;27.14
64296;BMP280;51082;38.236;15.432;2023-07-09T02:19:29;101582.06;;;27.16
64296;BMP280;51082;38.236;15.432;2023-07-09T02:20:34;101580.47;;;27.15
64296;BMP280;51082;38.236;15.432;2023-07-09T02:21:39;101580.25;;;27.11
64296;BMP280;51082;38.236;15.432;2023-07-09T02:22:46;101579.22;;;27.07
64296;BMP280;51082;38.236;15.432;2023-07-09T02:23:49;101575.25;;;27.05
64296;BMP280;51082;38.236;15.432;2023-07-09T02:24:52;101578.72;;;27.05
64296;BMP280;51082;38.236;15.432;2023-07-09T02:25:54;101576.31;;;27.04
64296;BMP280;51082;38.236;15.432;2023-07-09T02:26:58;101576.56;;;27.07
64296;BMP280;51082;38.236;15.432;2023-07-09T02:28:00;101580.03;;;27.08
64296;BMP280;51082;38.236;15.432;2023-07-09T02:29:08;101584.28;;;27.09
64296;BMP280;51082;38.236;15.432;2023-07-09T02:30:11;101583.75;;;27.07
64296;BMP280;51082;38.236;15.432;2023-07-09T02:31:14;101583.25;;;27.05
64296;BMP280;51082;38.236;15.432;2023-07-09T02:32:18;101596.38;;;27.01
64296;BMP280;51082;38.236;15.432;2023-07-09T02:33:29;101596.16;;;26.97
64296;BMP280;51082;38.236;15.432;2023-07-09T02:34:34;101590.31;;;26.95
64296;BMP280;51082;38.236;15.432;2023-07-09T02:35:37;101597.53;;;26.95
64296;BMP280;51082;38.236;15.432;2023-07-09T02:36:38;101600.50;;;26.93
64296;BMP280;51082;38.236;15.432;2023-07-09T02:37:44;101602.66;;;26.91
64296;BMP280;51082;38.236;15.432;2023-07-09T02:38:48;101601.28;;;26.94
64296;BMP280;51082;38.236;15.432;2023-07-09T02:39:50;101601.00;;;26.95
64296;BMP280;51082;38.236;15.432;2023-07-09T02:40:53;101603.38;;;26.97
64296;BMP280;51082;38.236;15.432;2023-07-09T02:41:56;101604.16;;;26.97
64296;BMP280;51082;38.236;15.432;2023-07-09T02:42:59;101612.19;;;26.97
64296;BMP280;51082;38.236;15.432;2023-07-09T02:44:04;101609.53;;;26.97
64296;BMP280;51082;38.236;15.432;2023-07-09T02:45:14;101609.03;;;26.95
64296;BMP280;51082;38.236;15.432;2023-07-09T02:46:16;101608.22;;;26.95
64296;BMP280;51082;38.236;15.432;2023-07-09T02:47:21;101611.19;;;26.93
64296;BMP280;51082;38.236;15.432;2023-07-09T02:48:23;101613.34;;;26.91
64296;BMP280;51082;38.236;15.432;2023-07-09T02:49:26;101616.00;;;26.91
64296;BMP280;51082;38.236;15.432;2023-07-09T02:50:29;101612.84;;;26.89
64296;BMP280;51082;38.236;15.432;2023-07-09T02:51:35;101627.78;;;26.90
64296;BMP280;51082;38.236;15.432;2023-07-09T02:52:39;101623.00;;;26.87
64296;BMP280;51082;38.236;15.432;2023-07-09T02:53:45;101621.44;;;26.86
64296;BMP280;51082;38.236;15.432;2023-07-09T02:54:48;101625.19;;;26.85
64296;BMP280;51082;38.236;15.432;2023-07-09T02:55:51;101621.97;;;26.83
64296;BMP280;51082;38.236;15.432;2023-07-09T02:56:55;101627.06;;;26.85
64296;BMP280;51082;38.236;15.432;2023-07-09T02:58:00;101626.78;;;26.86
64296;BMP280;51082;38.236;15.432;2023-07-09T02:59:02;101628.34;;;26.87
64296;BMP280;51082;38.236;15.432;2023-07-09T03:00:09;101627.53;;;26.87
64296;BMP280;51082;38.236;15.432;2023-07-09T03:01:13;101627.53;;;26.87
64296;BMP280;51082;38.236;15.432;2023-07-09T03:02:16;101629.44;;;26.86
64296;BMP280;51082;38.236;15.432;2023-07-09T03:03:19;101635.88;;;26.85
64296;BMP280;51082;38.236;15.432;2023-07-09T03:04:23;101631.06;;;26.82
64296;BMP280;51082;38.236;15.432;2023-07-09T03:05:25;101640.16;;;26.81
64296;BMP280;51082;38.236;15.432;2023-07-09T03:06:30;101636.97;;;26.79
64296;BMP280;51082;38.236;15.432;2023-07-09T03:07:35;101637.56;;;26.76
64296;BMP280;51082;38.236;15.432;2023-07-09T03:08:38;101637.56;;;26.76
64296;BMP280;51082;38.236;15.432;2023-07-09T03:09:40;101639.13;;;26.77
64296;BMP280;51082;38.236;15.432;2023-07-09T03:10:45;101639.13;;;26.77
64296;BMP280;51082;38.236;15.432;2023-07-09T03:11:46;101646.59;;;26.80
64296;BMP280;51082;38.236;15.432;2023-07-09T03:12:49;101646.03;;;26.83
64296;BMP280;51082;38.236;15.432;2023-07-09T03:13:51;101643.38;;;26.83
64296;BMP280;51082;38.236;15.432;2023-07-09T03:14:55;101643.13;;;26.80
64296;BMP280;51082;38.236;15.432;2023-07-09T03:16:02;101640.22;;;26.76
64296;BMP280;51082;38.236;15.432;2023-07-09T03:17:14;101634.88;;;26.76
64296;BMP280;51082;38.236;15.432;2023-07-09T03:18:15;101639.94;;;26.78
64296;BMP280;51082;38.236;15.432;2023-07-09T03:19:18;101640.22;;;26.76
64296;BMP280;51082;38.236;15.432;2023-07-09T03:20:20;101641.28;;;26.75
64296;BMP280;51082;38.236;15.432;2023-07-09T03:21:25;101637.06;;;26.69
64296;BMP280;51082;38.236;15.432;2023-07-09T03:22:27;101643.81;;;26.67
64296;BMP280;51082;38.236;15.432;2023-07-09T03:23:31;101638.47;;;26.67
64296;BMP280;51082;38.236;15.432;2023-07-09T03:24:37;101640.31;;;26.61
64296;BMP280;51082;38.236;15.432;2023-07-09T03:25:40;101643.59;;;26.58
64296;BMP280;51082;38.236;15.432;2023-07-09T03:26:46;101644.94;;;26.55
64296;BMP280;51082;38.236;15.432;2023-07-09T03:27:53;101647.59;;;26.55
64296;BMP280;51082;38.236;15.432;2023-07-09T03:28:55;101650.00;;;26.57
64296;BMP280;51082;38.236;15.432;2023-07-09T03:29:58;101636.91;;;26.55
64296;BMP280;51082;38.236;15.432;2023-07-09T03:30:59;101644.94;;;26.55
64296;BMP280;51082;38.236;15.432;2023-07-09T03:32:04;101645.25;;;26.54
64296;BMP280;51082;38.236;15.432;2023-07-09T03:33:05;101643.13;;;26.51
64296;BMP280;51082;38.236;15.432;2023-07-09T03:34:10;101643.66;;;26.48
64296;BMP280;51082;38.236;15.432;2023-07-09T03:35:14;101649.78;;;26.48
64296;BMP280;51082;38.236;15.432;2023-07-09T03:36:18;101639.41;;;26.47
64296;BMP280;51082;38.236;15.432;2023-07-09T03:37:24;101642.09;;;26.42
64296;BMP280;51082;38.236;15.432;2023-07-09T03:38:26;101644.28;;;26.40
64296;BMP280;51082;38.236;15.432;2023-07-09T03:39:28;101650.66;;;26.39
64296;BMP280;51082;38.236;15.432;2023-07-09T03:40:30;101637.88;;;26.36
64296;BMP280;51082;38.236;15.432;2023-07-09T03:41:36;101640.03;;;26.34
64296;BMP280;51082;38.236;15.432;2023-07-09T03:42:39;101642.19;;;26.32
64296;BMP280;51082;38.236;15.432;2023-07-09T03:43:42;101638.44;;;26.33
64296;BMP280;51082;38.236;15.432;2023-07-09T03:44:43;101639.47;;;26.37
64296;BMP280;51082;38.236;15.432;2023-07-09T03:45:49;101637.38;;;26.34
64296;BMP280;51082;38.236;15.432;2023-07-09T03:46:54;101637.38;;;26.34
64296;BMP280;51082;38.236;15.432;2023-07-09T03:47:56;101640.59;;;26.31
64296;BMP280;51082;38.236;15.432;2023-07-09T03:48:58;101632.59;;;26.31
64296;BMP280;51082;38.236;15.432;2023-07-09T03:50:02;101640.06;;;26.29
64296;BMP280;51082;38.236;15.432;2023-07-09T03:51:04;101632.34;;;26.27
64296;BMP280;51082;38.236;15.432;2023-07-09T03:52:07;101632.03;;;26.29
64296;BMP280;51082;38.236;15.432;2023-07-09T03:53:14;101635.25;;;26.25
64296;BMP280;51082;38.236;15.432;2023-07-09T03:54:20;101632.59;;;26.25
64296;BMP280;51082;38.236;15.432;2023-07-09T03:55:21;101635.56;;;26.24
64296;BMP280;51082;38.236;15.432;2023-07-09T03:56:27;101640.59;;;26.25
64296;BMP280;51082;38.236;15.432;2023-07-09T03:57:29;101636.91;;;26.21
64296;BMP280;51082;38.236;15.432;2023-07-09T03:58:36;101639.84;;;26.20
64296;BMP280;51082;38.236;15.432;2023-07-09T03:59:38;101644.41;;;26.19
64296;BMP280;51082;38.236;15.432;2023-07-09T04:00:41;101645.72;;;26.22
64296;BMP280;51082;38.236;15.432;2023-07-09T04:01:45;101644.41;;;26.19
64296;BMP280;51082;38.236;15.432;2023-07-09T04:02:48;101642.81;;;26.18
64296;BMP280;51082;38.236;15.432;2023-07-09T04:03:50;101647.38;;;26.18
64296;BMP280;51082;38.236;15.432;2023-07-09T04:04:53;101645.75;;;26.17
64296;BMP280;51082;38.236;15.432;2023-07-09T04:05:54;101649.75;;;26.19
64296;BMP280;51082;38.236;15.432;2023-07-09T04:07:00;101651.09;;;26.17
64296;BMP280;51082;38.236;15.432;2023-07-09T04:08:05;101647.63;;;26.16
64296;BMP280;51082;38.236;15.432;2023-07-09T04:09:07;101647.63;;;26.16
64296;BMP280;51082;38.236;15.432;2023-07-09T04:10:10;101643.06;;;26.17
64296;BMP280;51082;38.236;15.432;2023-07-09T04:11:13;101650.03;;;26.18
64296;BMP280;51082;38.236;15.432;2023-07-09T04:12:14;101648.13;;;26.18
64296;BMP280;51082;38.236;15.432;2023-07-09T04:13:17;101652.41;;;26.19
64296;BMP280;51082;38.236;15.432;2023-07-09T04:14:20;101647.59;;;26.21
64296;BMP280;51082;38.236;15.432;2023-07-09T04:15:30;101644.41;;;26.19
64296;BMP280;51082;38.236;15.432;2023-07-09T04:16:32;101647.88;;;26.20
64296;BMP280;51082;38.236;15.432;2023-07-09T04:17:35;101646.25;;;26.24
64296;BMP280;51082;38.236;15.432;2023-07-09T04:18:37;101636.91;;;26.21
64296;BMP280;51082;38.236;15.432;2023-07-09T04:19:40;101648.13;;;26.23
64296;BMP280;51082;38.236;15.432;2023-07-09T04:20:41;101649.41;;;26.26
64296;BMP280;51082;38.236;15.432;2023-07-09T04:21:44;101643.84;;;26.28
64296;BMP280;51082;38.236;15.432;2023-07-09T04:22:45;101651.84;;;26.28
64296;BMP280;51082;38.236;15.432;2023-07-09T04:23:48;101648.38;;;26.27
64296;BMP280;51082;38.236;15.432;2023-07-09T04:24:50;101650.75;;;26.29
64296;BMP280;51082;38.236;15.432;2023-07-09T04:25:56;101651.28;;;26.31
64296;BMP280;51082;38.236;15.432;2023-07-09T04:26:58;101645.38;;;26.34
64296;BMP280;51082;38.236;15.432;2023-07-09T04:28:07;101649.41;;;26.31
64296;BMP280;51082;38.236;15.432;2023-07-09T04:29:10;101647.25;;;26.33
64296;BMP280;51082;38.236;15.432;2023-07-09T04:30:17;101652.59;;;26.33
64296;BMP280;51082;38.236;15.432;2023-07-09T04:31:21;101649.91;;;26.33
64296;BMP280;51082;38.236;15.432;2023-07-09T04:32:23;101642.44;;;26.35
64296;BMP280;51082;38.236;15.432;2023-07-09T04:33:28;101649.63;;;26.35
64296;BMP280;51082;38.236;15.432;2023-07-09T04:34:37;101648.00;;;26.39
64296;BMP280;51082;38.236;15.432;2023-07-09T04:35:43;101644.00;;;26.41
64296;BMP280;51082;38.236;15.432;2023-07-09T04:36:46;101647.69;;;26.45
64296;BMP280;51082;38.236;15.432;2023-07-09T04:37:50;101648.41;;;26.56
64296;BMP280;51082;38.236;15.432;2023-07-09T04:38:53;101647.31;;;26.62
64296;BMP280;51082;38.236;15.432;2023-07-09T04:39:55;101647.31;;;26.62
64296;BMP280;51082;38.236;15.432;2023-07-09T04:41:02;101649.94;;;26.67
64296;BMP280;51082;38.236;15.432;2023-07-09T04:42:11;101649.34;;;26.70
64296;BMP280;51082;38.236;15.432;2023-07-09T04:43:17;101651.22;;;26.70
64296;BMP280;51082;38.236;15.432;2023-07-09T04:44:20;101654.19;;;26.68
64296;BMP280;51082;38.236;15.432;2023-07-09T04:45:23;101651.50;;;26.68
64296;BMP280;51082;38.236;15.432;2023-07-09T04:46:31;101657.38;;;26.70
64296;BMP280;51082;38.236;15.432;2023-07-09T04:47:34;101644.00;;;26.70
64296;BMP280;51082;38.236;15.432;2023-07-09T04:48:37;101648.28;;;26.71
64296;BMP280;51082;38.236;15.432;2023-07-09T04:49:42;101650.91;;;26.76
64296;BMP280;51082;38.236;15.432;2023-07-09T04:50:46;101654.00;;;26.88
64296;BMP280;51082;38.236;15.432;2023-07-09T04:51:51;101655.78;;;26.98
64296;BMP280;51082;38.236;15.432;2023-07-09T04:52:56;101657.94;;;26.96
64296;BMP280;51082;38.236;15.432;2023-07-09T04:54:00;101657.16;;;26.95
64296;BMP280;51082;38.236;15.432;2023-07-09T04:55:05;101658.50;;;26.93
64296;BMP280;51082;38.236;15.432;2023-07-09T04:56:08;101660.91;;;26.94
64296;BMP280;51082;38.236;15.432;2023-07-09T04:57:12;101659.31;;;26.93
64296;BMP280;51082;38.236;15.432;2023-07-09T04:58:14;101657.16;;;26.95
64296;BMP280;51082;38.236;15.432;2023-07-09T04:59:20;101652.28;;;26.97
64296;BMP280;51082;38.236;15.432;2023-07-09T05:00:23;101661.34;;;27.02
64296;BMP280;51082;38.236;15.432;2023-07-09T05:01:28;101671.72;;;27.08
64296;BMP280;51082;38.236;15.432;2023-07-09T05:02:29;101671.97;;;27.12
64296;BMP280;51082;38.236;15.432;2023-07-09T05:03:32;101673.44;;;27.23
64296;BMP280;51082;38.236;15.432;2023-07-09T05:04:33;101678.19;;;27.31
64296;BMP280;51082;38.236;15.432;2023-07-09T05:05:42;101673.28;;;27.38
64296;BMP280;51082;38.236;15.432;2023-07-09T05:06:44;101680.13;;;27.44
64296;BMP280;51082;38.236;15.432;2023-07-09T05:07:46;101677.66;;;27.53
64296;BMP280;51082;38.236;15.432;2023-07-09T05:08:48;101671.16;;;27.59
64296;BMP280;51082;38.236;15.432;2023-07-09T05:09:52;101683.09;;;27.66
64296;BMP280;51082;38.236;15.432;2023-07-09T05:10:57;101682.66;;;27.78
64296;BMP280;51082;38.236;15.432;2023-07-09T05:12:01;101679.25;;;27.91
64296;BMP280;51082;38.236;15.432;2023-07-09T05:13:02;101675.16;;;27.99
64296;BMP280;51082;38.236;15.432;2023-07-09T05:14:05;101678.78;;;28.08
64296;BMP280;51082;38.236;15.432;2023-07-09T05:15:07;101679.22;;;28.15
64296;BMP280;51082;38.236;15.432;2023-07-09T05:16:12;101672.59;;;28.26
64296;BMP280;51082;38.236;15.432;2023-07-09T05:17:18;101679.31;;;28.42
64296;BMP280;51082;38.236;15.432;2023-07-09T05:18:20;101672.59;;;28.59
64296;BMP280;51082;38.236;15.432;2023-07-09T05:19:22;101672.66;;;28.72
64296;BMP280;51082;38.236;15.432;2023-07-09T05:20:23;101677.53;;;28.84
64296;BMP280;51082;38.236;15.432;2023-07-09T05:21:26;101674.16;;;28.92
64296;BMP280;51082;38.236;15.432;2023-07-09T05:22:28;101684.47;;;29.12
64296;BMP280;51082;38.236;15.432;2023-07-09T05:23:33;101681.91;;;29.21
64296;BMP280;51082;38.236;15.432;2023-07-09T05:24:34;101678.16;;;29.36
64296;BMP280;51082;38.236;15.432;2023-07-09T05:25:37;101677.44;;;29.44
64296;BMP280;51082;38.236;15.432;2023-07-09T05:26:39;101677.88;;;29.59
64296;BMP280;51082;38.236;15.432;2023-07-09T05:27:44;101678.97;;;29.72
64296;BMP280;51082;38.236;15.432;2023-07-09T05:28:48;101684.28;;;29.86
64296;BMP280;51082;38.236;15.432;2023-07-09T05:29:51;101680.09;;;29.93
64296;BMP280;51082;38.236;15.432;2023-07-09T05:30:53;101679.25;;;30.07
64296;BMP280;51082;38.236;15.432;2023-07-09T05:31:58;101674.78;;;30.24
64296;BMP280;51082;38.236;15.432;2023-07-09T05:32:59;101680.09;;;30.38
64296;BMP280;51082;38.236;15.432;2023-07-09T05:34:02;101674.19;;;30.58
64296;BMP280;51082;38.236;15.432;2023-07-09T05:35:05;101683.63;;;30.78
64296;BMP280;51082;38.236;15.432;2023-07-09T05:36:11;101683.31;;;30.88
64296;BMP280;51082;38.236;15.432;2023-07-09T05:37:16;101677.50;;;31.03
64296;BMP280;51082;38.236;15.432;2023-07-09T05:38:19;101682.31;;;31.15
64296;BMP280;51082;38.236;15.432;2023-07-09T05:39:22;101688.63;;;31.19
64296;BMP280;51082;38.236;15.432;2023-07-09T05:40:28;101685.16;;;31.19
64296;BMP280;51082;38.236;15.432;2023-07-09T05:41:30;101685.47;;;31.17
64296;BMP280;51082;38.236;15.432;2023-07-09T05:42:32;101676.63;;;31.25
64296;BMP280;51082;38.236;15.432;2023-07-09T05:43:37;101688.53;;;31.41
64296;BMP280;51082;38.236;15.432;2023-07-09T05:44:41;101683.28;;;31.53
64296;BMP280;51082;38.236;15.432;2023-07-09T05:47:18;101686.16;;;31.83
64296;BMP280;51082;38.236;15.432;2023-07-09T05:48:20;101679.34;;;31.85
64296;BMP280;51082;38.236;15.432;2023-07-09T05:49:25;101690.28;;;31.89
64296;BMP280;51082;38.236;15.432;2023-07-09T05:50:28;101693.09;;;32.01
64296;BMP280;51082;38.236;15.432;2023-07-09T05:51:33;101689.28;;;32.11
64296;BMP280;51082;38.236;15.432;2023-07-09T05:52:39;101691.00;;;32.24
64296;BMP280;51082;38.236;15.432;2023-07-09T05:53:46;101685.53;;;32.41
64296;BMP280;51082;38.236;15.432;2023-07-09T05:54:54;101694.56;;;32.54
64296;BMP280;51082;38.236;15.432;2023-07-09T05:55:56;101688.44;;;32.74
64296;BMP280;51082;38.236;15.432;2023-07-09T05:57:04;101688.06;;;32.84
64296;BMP280;51082;38.236;15.432;2023-07-09T05:58:05;101685.81;;;32.86
64296;BMP280;51082;38.236;15.432;2023-07-09T05:59:08;101681.38;;;32.90
64296;BMP280;51082;38.236;15.432;2023-07-09T06:00:10;101690.50;;;33.06
64296;BMP280;51082;38.236;15.432;2023-07-09T06:01:16;101685.63;;;33.21
64296;BMP280;51082;38.236;15.432;2023-07-09T06:02:20;101690.78;;;33.34
64296;BMP280;51082;38.236;15.432;2023-07-09T06:03:26;101687.84;;;33.60
64296;BMP280;51082;38.236;15.432;2023-07-09T06:04:28;101687.44;;;33.70